sensor_id;sensor_type;location;lat;lon;timestamp;P1;durP1;ratioP1;P2;durP2;ratioP2
823;SDS011;373;49.342;8.146;2024-03-23T00:55:55;8.85;;;7.82;;
823;SDS011;373;49.342;8.146;2024-03-23T00:58:22;8.40;;;7.55;;
823;SDS011;373;49.342;8.146;2024-03-23T01:00:48;8.57;;;7.78;;
823;SDS011;373;49.342;8.146;2024-03-23T01:03:15;9.70;;;8.77;;
823;SDS011;373;49.342;8.146;2024-03-23T01:05:41;10.35;;;8.45;;
823;SDS011;373;49.342;8.146;2024-03-23T01:08:08;11.82;;;9.50;;
823;SDS011;373;49.342;8.146;2024-03-23T01:10:35;9.82;;;8.23;;
823;SDS011;373;49.342;8.146;2024-03-23T01:13:02;9.35;;;8.25;;
823;SDS011;373;49.342;8.146;2024-03-23T01:15:28;10.02;;;9.13;;
823;SDS011;373;49.342;8.146;2024-03-23T01:17:55;11.43;;;9.30;;
823;SDS011;373;49.342;8.146;2024-03-23T01:20:21;10.02;;;8.38;;
823;SDS011;373;49.342;8.146;2024-03-23T01:22:48;10.20;;;8.50;;
823;SDS011;373;49.342;8.146;2024-03-23T01:25:14;8.85;;;8.02;;
823;SDS011;373;49.342;8.146;2024-03-23T01:27:43;10.68;;;8.75;;
823;SDS011;373;49.342;8.146;2024-03-23T01:30:09;10.68;;;9.57;;
823;SDS011;373;49.342;8.146;2024-03-23T01:32:36;12.20;;;10.52;;
823;SDS011;373;49.342;8.146;2024-03-23T01:35:02;9.88;;;8.95;;
823;SDS011;373;49.342;8.146;2024-03-23T01:37:30;10.88;;;9.88;;
823;SDS011;373;49.342;8.146;2024-03-23T01:39:56;11.05;;;9.55;;
823;SDS011;373;49.342;8.146;2024-03-23T01:42:23;10.95;;;9.85;;
823;SDS011;373;49.342;8.146;2024-03-23T01:44:50;10.38;;;9.38;;
823;SDS011;373;49.342;8.146;2024-03-23T01:47:17;10.63;;;9.38;;
823;SDS011;373;49.342;8.146;2024-03-23T01:49:43;10.20;;;9.20;;
823;SDS011;373;49.342;8.146;2024-03-23T01:52:10;14.55;;;8.95;;
823;SDS011;373;49.342;8.146;2024-03-23T01:54:36;11.57;;;9.00;;
823;SDS011;373;49.342;8.146;2024-03-23T01:57:04;9.68;;;8.30;;
823;SDS011;373;49.342;8.146;2024-03-23T01:59:30;11.00;;;9.90;;
823;SDS011;373;49.342;8.146;2024-03-23T02:01:59;9.93;;;8.93;;
823;SDS011;373;49.342;8.146;2024-03-23T02:04:25;10.25;;;9.25;;
823;SDS011;373;49.342;8.146;2024-03-23T02:06:52;12.23;;;10.52;;
823;SDS011;373;49.342;8.146;2024-03-23T02:09:18;12.02;;;10.13;;
823;SDS011;373;49.342;8.146;2024-03-23T02:11:45;11.50;;;9.95;;
823;SDS011;373;49.342;8.146;2024-03-23T02:14:11;11.63;;;9.80;;
823;SDS011;373;49.342;8.146;2024-03-23T02:16:38;11.02;;;9.70;;
823;SDS011;373;49.342;8.146;2024-03-23T02:19:05;12.32;;;10.50;;
823;SDS011;373;49.342;8.146;2024-03-23T02:21:32;11.15;;;9.77;;
823;SDS011;373;49.342;8.146;2024-03-23T02:24:00;11.20;;;10.05;;
823;SDS011;373;49.342;8.146;2024-03-23T02:26:27;12.77;;;10.43;;
823;SDS011;373;49.342;8.146;2024-03-23T02:28:53;13.05;;;10.57;;
823;SDS011;373;49.342;8.146;2024-03-23T02:31:20;12.18;;;10.82;;
823;SDS011;373;49.342;8.146;2024-03-23T02:33:46;10.20;;;9.15;;
823;SDS011;373;49.342;8.146;2024-03-23T02:36:13;11.25;;;9.20;;
823;SDS011;373;49.342;8.146;2024-03-23T02:38:39;9.15;;;8.20;;
823;SDS011;373;49.342;8.146;2024-03-23T02:41:07;10.25;;;9.07;;
823;SDS011;373;49.342;8.146;2024-03-23T02:43:33;9.88;;;8.60;;
823;SDS011;373;49.342;8.146;2024-03-23T02:46:00;8.85;;;7.43;;
823;SDS011;373;49.342;8.146;2024-03-23T02:48:26;10.35;;;8.45;;
823;SDS011;373;49.342;8.146;2024-03-23T02:50:54;11.02;;;9.40;;
823;SDS011;373;49.342;8.146;2024-03-23T02:53:20;9.05;;;7.95;;
823;SDS011;373;49.342;8.146;2024-03-23T02:55:50;8.82;;;7.90;;
823;SDS011;373;49.342;8.146;2024-03-23T02:58:17;10.60;;;8.82;;
823;SDS011;373;49.342;8.146;2024-03-23T03:00:44;11.02;;;9.80;;
823;SDS011;373;49.342;8.146;2024-03-23T03:03:10;11.70;;;9.80;;
823;SDS011;373;49.342;8.146;2024-03-23T03:05:37;9.98;;;8.10;;
823;SDS011;373;49.342;8.146;2024-03-23T03:08:03;13.15;;;11.02;;
823;SDS011;373;49.342;8.146;2024-03-23T03:10:31;12.88;;;10.95;;
823;SDS011;373;49.342;8.146;2024-03-23T03:13:00;14.13;;;12.38;;
823;SDS011;373;49.342;8.146;2024-03-23T03:15:28;13.20;;;11.88;;
823;SDS011;373;49.342;8.146;2024-03-23T03:17:54;17.05;;;13.15;;
823;SDS011;373;49.342;8.146;2024-03-23T03:20:21;15.23;;;13.68;;
823;SDS011;373;49.342;8.146;2024-03-23T03:22:48;16.77;;;13.38;;
823;SDS011;373;49.342;8.146;2024-03-23T03:25:15;15.93;;;14.25;;
823;SDS011;373;49.342;8.146;2024-03-23T03:27:41;16.10;;;13.55;;
823;SDS011;373;49.342;8.146;2024-03-23T03:30:09;14.63;;;13.10;;
823;SDS011;373;49.342;8.146;2024-03-23T03:32:37;14.52;;;12.90;;
823;SDS011;373;49.342;8.146;2024-03-23T03:35:04;16.63;;;13.15;;
823;SDS011;373;49.342;8.146;2024-03-23T03:37:30;16.05;;;13.02;;
823;SDS011;373;49.342;8.146;2024-03-23T03:39:58;15.15;;;11.98;;
823;SDS011;373;49.342;8.146;2024-03-23T03:42:24;13.35;;;11.90;;
823;SDS011;373;49.342;8.146;2024-03-23T03:44:51;13.45;;;12.05;;
823;SDS011;373;49.342;8.146;2024-03-23T03:47:19;14.25;;;11.88;;
823;SDS011;373;49.342;8.146;2024-03-23T03:49:47;12.02;;;10.35;;
823;SDS011;373;49.342;8.146;2024-03-23T03:52:13;12.63;;;11.30;;
823;SDS011;373;49.342;8.146;2024-03-23T03:54:40;12.90;;;10.75;;
823;SDS011;373;49.342;8.146;2024-03-23T03:57:06;12.75;;;10.10;;
823;SDS011;373;49.342;8.146;2024-03-23T03:59:33;9.90;;;8.73;;
823;SDS011;373;49.342;8.146;2024-03-23T04:01:59;11.25;;;9.60;;
823;SDS011;373;49.342;8.146;2024-03-23T04:04:27;9.85;;;8.85;;
823;SDS011;373;49.342;8.146;2024-03-23T04:06:59;10.57;;;8.77;;
823;SDS011;373;49.342;8.146;2024-03-23T04:09:26;8.75;;;7.85;;
823;SDS011;373;49.342;8.146;2024-03-23T04:11:52;10.07;;;8.98;;
823;SDS011;373;49.342;8.146;2024-03-23T04:14:19;11.18;;;8.77;;
823;SDS011;373;49.342;8.146;2024-03-23T04:16:45;9.85;;;8.88;;
823;SDS011;373;49.342;8.146;2024-03-23T04:19:12;9.50;;;7.90;;
823;SDS011;373;49.342;8.146;2024-03-23T04:21:38;8.40;;;7.47;;
823;SDS011;373;49.342;8.146;2024-03-23T04:24:07;8.07;;;7.28;;
823;SDS011;373;49.342;8.146;2024-03-23T04:26:40;8.23;;;7.43;;
823;SDS011;373;49.342;8.146;2024-03-23T04:29:07;7.05;;;6.35;;
823;SDS011;373;49.342;8.146;2024-03-23T04:31:33;6.57;;;5.95;;
823;SDS011;373;49.342;8.146;2024-03-23T04:34:01;7.22;;;5.45;;
823;SDS011;373;49.342;8.146;2024-03-23T04:36:27;7.13;;;5.68;;
823;SDS011;373;49.342;8.146;2024-03-23T04:38:54;4.57;;;4.05;;
823;SDS011;373;49.342;8.146;2024-03-23T04:41:23;5.30;;;4.80;;
823;SDS011;373;49.342;8.146;2024-03-23T04:43:51;5.38;;;4.25;;
823;SDS011;373;49.342;8.146;2024-03-23T04:46:18;5.20;;;4.43;;
823;SDS011;373;49.342;8.146;2024-03-23T04:48:45;4.32;;;3.92;;
823;SDS011;373;49.342;8.146;2024-03-23T04:51:19;4.72;;;4.32;;
823;SDS011;373;49.342;8.146;2024-03-23T04:53:47;3.72;;;3.42;;
823;SDS011;373;49.342;8.146;2024-03-23T04:56:14;5.63;;;3.22;;
823;SDS011;373;49.342;8.146;2024-03-23T04:58:43;3.47;;;3.17;;
823;SDS011;373;49.342;8.146;2024-03-23T05:01:10;2.75;;;2.53;;
823;SDS011;373;49.342;8.146;2024-03-23T05:03:37;2.63;;;2.42;;
823;SDS011;373;49.342;8.146;2024-03-23T05:06:03;2.63;;;2.40;;
823;SDS011;373;49.342;8.146;2024-03-23T05:08:31;2.50;;;2.30;;
823;SDS011;373;49.342;8.146;2024-03-23T05:10:57;2.65;;;2.45;;
823;SDS011;373;49.342;8.146;2024-03-23T05:13:24;2.63;;;2.42;;
823;SDS011;373;49.342;8.146;2024-03-23T05:15:53;2.60;;;2.40;;
823;SDS011;373;49.342;8.146;2024-03-23T05:18:20;2.65;;;2.33;;
823;SDS011;373;49.342;8.146;2024-03-23T05:20:46;1.88;;;1.67;;
823;SDS011;373;49.342;8.146;2024-03-23T05:23:13;2.13;;;1.98;;
823;SDS011;373;49.342;8.146;2024-03-23T05:25:39;2.00;;;1.85;;
823;SDS011;373;49.342;8.146;2024-03-23T05:28:07;2.28;;;1.52;;
823;SDS011;373;49.342;8.146;2024-03-23T05:30:33;2.40;;;2.20;;
823;SDS011;373;49.342;8.146;2024-03-23T05:33:01;1.65;;;1.55;;
823;SDS011;373;49.342;8.146;2024-03-23T05:35:28;1.95;;;1.70;;
823;SDS011;373;49.342;8.146;2024-03-23T05:37:55;2.00;;;1.85;;
823;SDS011;373;49.342;8.146;2024-03-23T05:40:21;1.75;;;1.25;;
823;SDS011;373;49.342;8.146;2024-03-23T05:42:48;1.20;;;1.10;;
823;SDS011;373;49.342;8.146;2024-03-23T05:45:14;1.33;;;1.10;;
823;SDS011;373;49.342;8.146;2024-03-23T05:47:43;0.50;;;0.50;;
823;SDS011;373;49.342;8.146;2024-03-23T05:50:11;0.93;;;0.85;;
823;SDS011;373;49.342;8.146;2024-03-23T05:52:38;0.90;;;0.75;;
823;SDS011;373;49.342;8.146;2024-03-23T05:55:04;0.70;;;0.70;;
823;SDS011;373;49.342;8.146;2024-03-23T05:57:32;0.90;;;0.90;;
823;SDS011;373;49.342;8.146;2024-03-23T05:59:58;0.75;;;0.70;;
823;SDS011;373;49.342;8.146;2024-03-23T06:02:25;0.52;;;0.52;;
823;SDS011;373;49.342;8.146;2024-03-23T06:04:51;0.40;;;0.40;;
823;SDS011;373;49.342;8.146;2024-03-23T06:07:19;0.77;;;0.30;;
823;SDS011;373;49.342;8.146;2024-03-23T06:09:45;0.90;;;0.40;;
823;SDS011;373;49.342;8.146;2024-03-23T06:12:12;0.40;;;0.40;;
823;SDS011;373;49.342;8.146;2024-03-23T06:14:38;0.45;;;0.45;;
823;SDS011;373;49.342;8.146;2024-03-23T06:17:05;0.68;;;0.40;;
823;SDS011;373;49.342;8.146;2024-03-23T06:19:31;0.52;;;0.40;;
823;SDS011;373;49.342;8.146;2024-03-23T06:21:58;0.55;;;0.40;;
823;SDS011;373;49.342;8.146;2024-03-23T06:24:25;0.13;;;0.10;;
823;SDS011;373;49.342;8.146;2024-03-23T06:26:52;0.75;;;0.30;;
823;SDS011;373;49.342;8.146;2024-03-23T06:29:19;0.30;;;0.30;;
823;SDS011;373;49.342;8.146;2024-03-23T06:31:51;0.30;;;0.30;;
823;SDS011;373;49.342;8.146;2024-03-23T06:34:18;0.20;;;0.20;;
823;SDS011;373;49.342;8.146;2024-03-23T06:36:47;0.38;;;0.38;;
823;SDS011;373;49.342;8.146;2024-03-23T06:39:13;0.20;;;0.20;;
823;SDS011;373;49.342;8.146;2024-03-23T06:41:42;0.35;;;0.35;;
823;SDS011;373;49.342;8.146;2024-03-23T06:44:08;0.20;;;0.20;;
823;SDS011;373;49.342;8.146;2024-03-23T06:46:35;0.30;;;0.30;;
823;SDS011;373;49.342;8.146;2024-03-23T06:49:01;0.45;;;0.45;;
823;SDS011;373;49.342;8.146;2024-03-23T06:51:28;0.20;;;0.20;;
823;SDS011;373;49.342;8.146;2024-03-23T06:53:54;0.10;;;0.10;;
823;SDS011;373;49.342;8.146;2024-03-23T06:56:21;0.30;;;0.30;;
823;SDS011;373;49.342;8.146;2024-03-23T06:58:49;0.20;;;0.20;;
823;SDS011;373;49.342;8.146;2024-03-23T07:01:16;1.38;;;0.38;;
823;SDS011;373;49.342;8.146;2024-03-23T07:03:42;0.35;;;0.20;;
823;SDS011;373;49.342;8.146;2024-03-23T07:06:09;0.43;;;0.30;;
823;SDS011;373;49.342;8.146;2024-03-23T07:08:35;0.30;;;0.30;;
823;SDS011;373;49.342;8.146;2024-03-23T07:11:03;0.30;;;0.30;;
823;SDS011;373;49.342;8.146;2024-03-23T07:13:30;1.08;;;0.38;;
823;SDS011;373;49.342;8.146;2024-03-23T07:15:58;0.65;;;0.50;;
823;SDS011;373;49.342;8.146;2024-03-23T07:18:25;0.75;;;0.40;;
823;SDS011;373;49.342;8.146;2024-03-23T07:20:52;1.92;;;0.52;;
823;SDS011;373;49.342;8.146;2024-03-23T07:23:19;1.40;;;0.70;;
823;SDS011;373;49.342;8.146;2024-03-23T07:25:55;0.70;;;0.60;;
823;SDS011;373;49.342;8.146;2024-03-23T07:28:22;1.50;;;0.90;;
823;SDS011;373;49.342;8.146;2024-03-23T07:31:00;3.40;;;0.98;;
823;SDS011;373;49.342;8.146;2024-03-23T07:33:27;3.38;;;1.13;;
823;SDS011;373;49.342;8.146;2024-03-23T07:35:54;1.75;;;0.90;;
823;SDS011;373;49.342;8.146;2024-03-23T07:38:21;1.67;;;0.85;;
823;SDS011;373;49.342;8.146;2024-03-23T07:40:48;2.33;;;0.88;;
823;SDS011;373;49.342;8.146;2024-03-23T07:43:15;3.42;;;1.50;;
823;SDS011;373;49.342;8.146;2024-03-23T07:45:42;3.03;;;1.10;;
823;SDS011;373;49.342;8.146;2024-03-23T07:48:11;3.90;;;1.10;;
823;SDS011;373;49.342;8.146;2024-03-23T07:50:37;2.45;;;1.20;;
823;SDS011;373;49.342;8.146;2024-03-23T07:53:05;1.60;;;0.93;;
823;SDS011;373;49.342;8.146;2024-03-23T07:55:31;5.40;;;1.27;;
823;SDS011;373;49.342;8.146;2024-03-23T07:57:58;2.63;;;1.30;;
823;SDS011;373;49.342;8.146;2024-03-23T08:00:24;3.08;;;1.60;;
823;SDS011;373;49.342;8.146;2024-03-23T08:02:51;2.60;;;1.25;;
823;SDS011;373;49.342;8.146;2024-03-23T08:05:19;3.95;;;1.80;;
823;SDS011;373;49.342;8.146;2024-03-23T08:07:48;4.88;;;1.90;;
823;SDS011;373;49.342;8.146;2024-03-23T08:10:15;4.45;;;2.08;;
823;SDS011;373;49.342;8.146;2024-03-23T08:12:45;4.65;;;1.90;;
823;SDS011;373;49.342;8.146;2024-03-23T08:15:11;3.40;;;2.22;;
823;SDS011;373;49.342;8.146;2024-03-23T08:17:39;2.67;;;2.08;;
823;SDS011;373;49.342;8.146;2024-03-23T08:20:05;4.75;;;1.83;;
823;SDS011;373;49.342;8.146;2024-03-23T08:22:36;3.47;;;1.92;;
823;SDS011;373;49.342;8.146;2024-03-23T08:25:02;5.50;;;1.58;;
823;SDS011;373;49.342;8.146;2024-03-23T08:27:29;3.90;;;1.73;;
823;SDS011;373;49.342;8.146;2024-03-23T08:29:56;3.08;;;1.40;;
823;SDS011;373;49.342;8.146;2024-03-23T08:32:23;4.20;;;2.20;;
823;SDS011;373;49.342;8.146;2024-03-23T08:34:49;3.53;;;1.88;;
823;SDS011;373;49.342;8.146;2024-03-23T08:37:16;5.10;;;2.58;;
823;SDS011;373;49.342;8.146;2024-03-23T08:39:44;2.05;;;1.60;;
823;SDS011;373;49.342;8.146;2024-03-23T08:42:11;3.67;;;1.83;;
823;SDS011;373;49.342;8.146;2024-03-23T08:44:37;3.50;;;1.65;;
823;SDS011;373;49.342;8.146;2024-03-23T08:47:04;6.07;;;2.80;;
823;SDS011;373;49.342;8.146;2024-03-23T08:49:30;3.78;;;2.30;;
823;SDS011;373;49.342;8.146;2024-03-23T08:51:57;2.97;;;2.10;;
823;SDS011;373;49.342;8.146;2024-03-23T08:54:23;5.43;;;2.67;;
823;SDS011;373;49.342;8.146;2024-03-23T08:56:54;4.45;;;2.40;;
823;SDS011;373;49.342;8.146;2024-03-23T08:59:20;5.15;;;2.85;;
823;SDS011;373;49.342;8.146;2024-03-23T09:01:49;4.90;;;2.28;;
823;SDS011;373;49.342;8.146;2024-03-23T09:04:15;4.65;;;3.08;;
823;SDS011;373;49.342;8.146;2024-03-23T09:06:42;5.95;;;2.95;;
823;SDS011;373;49.342;8.146;2024-03-23T09:09:08;5.57;;;2.60;;
823;SDS011;373;49.342;8.146;2024-03-23T09:11:35;5.63;;;2.70;;
823;SDS011;373;49.342;8.146;2024-03-23T09:14:04;5.35;;;2.75;;
823;SDS011;373;49.342;8.146;2024-03-23T09:16:31;2.92;;;2.10;;
823;SDS011;373;49.342;8.146;2024-03-23T09:18:57;3.10;;;2.50;;
823;SDS011;373;49.342;8.146;2024-03-23T09:21:24;7.35;;;2.58;;
823;SDS011;373;49.342;8.146;2024-03-23T09:23:50;5.18;;;2.58;;
823;SDS011;373;49.342;8.146;2024-03-23T09:26:17;6.18;;;2.80;;
823;SDS011;373;49.342;8.146;2024-03-23T09:28:43;4.85;;;2.55;;
823;SDS011;373;49.342;8.146;2024-03-23T09:31:11;4.82;;;2.45;;
823;SDS011;373;49.342;8.146;2024-03-23T09:33:40;5.65;;;2.50;;
823;SDS011;373;49.342;8.146;2024-03-23T09:36:07;5.35;;;2.38;;
823;SDS011;373;49.342;8.146;2024-03-23T09:38:35;4.80;;;2.60;;
823;SDS011;373;49.342;8.146;2024-03-23T09:41:06;3.45;;;1.98;;
823;SDS011;373;49.342;8.146;2024-03-23T09:43:33;6.55;;;2.67;;
823;SDS011;373;49.342;8.146;2024-03-23T09:46:01;4.30;;;2.45;;
823;SDS011;373;49.342;8.146;2024-03-23T09:48:29;7.10;;;2.30;;
823;SDS011;373;49.342;8.146;2024-03-23T09:50:56;6.00;;;2.38;;
823;SDS011;373;49.342;8.146;2024-03-23T09:53:23;4.97;;;2.47;;
823;SDS011;373;49.342;8.146;2024-03-23T09:55:50;5.35;;;2.33;;
823;SDS011;373;49.342;8.146;2024-03-23T09:58:16;4.10;;;2.42;;
823;SDS011;373;49.342;8.146;2024-03-23T10:00:44;4.05;;;2.10;;
823;SDS011;373;49.342;8.146;2024-03-23T10:03:11;6.05;;;2.50;;
823;SDS011;373;49.342;8.146;2024-03-23T10:05:40;5.63;;;2.33;;
823;SDS011;373;49.342;8.146;2024-03-23T10:08:17;3.55;;;1.85;;
823;SDS011;373;49.342;8.146;2024-03-23T10:10:45;5.30;;;1.83;;
823;SDS011;373;49.342;8.146;2024-03-23T10:13:11;6.90;;;1.98;;
823;SDS011;373;49.342;8.146;2024-03-23T10:15:54;4.97;;;1.73;;
823;SDS011;373;49.342;8.146;2024-03-23T10:18:22;3.15;;;1.60;;
823;SDS011;373;49.342;8.146;2024-03-23T10:21:06;3.72;;;1.65;;
823;SDS011;373;49.342;8.146;2024-03-23T10:23:34;3.30;;;1.77;;
823;SDS011;373;49.342;8.146;2024-03-23T10:26:17;4.97;;;1.88;;
823;SDS011;373;49.342;8.146;2024-03-23T10:28:51;3.22;;;1.58;;
823;SDS011;373;49.342;8.146;2024-03-23T10:31:19;3.15;;;1.73;;
823;SDS011;373;49.342;8.146;2024-03-23T10:33:45;5.13;;;1.60;;
823;SDS011;373;49.342;8.146;2024-03-23T10:36:14;3.92;;;2.42;;
823;SDS011;373;49.342;8.146;2024-03-23T10:38:41;2.65;;;1.40;;
823;SDS011;373;49.342;8.146;2024-03-23T10:41:10;3.33;;;1.52;;
823;SDS011;373;49.342;8.146;2024-03-23T10:43:36;4.55;;;1.95;;
823;SDS011;373;49.342;8.146;2024-03-23T10:46:03;4.43;;;2.28;;
823;SDS011;373;49.342;8.146;2024-03-23T10:48:37;4.30;;;1.92;;
823;SDS011;373;49.342;8.146;2024-03-23T10:51:42;4.82;;;1.63;;
823;SDS011;373;49.342;8.146;2024-03-23T10:54:08;2.45;;;1.80;;
823;SDS011;373;49.342;8.146;2024-03-23T10:56:38;3.20;;;2.13;;
823;SDS011;373;49.342;8.146;2024-03-23T10:59:06;3.20;;;1.83;;
823;SDS011;373;49.342;8.146;2024-03-23T11:01:35;3.03;;;2.00;;
823;SDS011;373;49.342;8.146;2024-03-23T11:04:29;5.00;;;1.80;;
823;SDS011;373;49.342;8.146;2024-03-23T11:06:58;3.47;;;2.03;;
823;SDS011;373;49.342;8.146;2024-03-23T11:09:39;4.07;;;1.75;;
823;SDS011;373;49.342;8.146;2024-03-23T11:12:29;4.80;;;2.22;;
823;SDS011;373;49.342;8.146;2024-03-23T11:14:58;3.17;;;2.17;;
823;SDS011;373;49.342;8.146;2024-03-23T11:17:27;5.70;;;2.25;;
823;SDS011;373;49.342;8.146;2024-03-23T11:19:54;3.17;;;2.25;;
823;SDS011;373;49.342;8.146;2024-03-23T11:25:16;3.00;;;1.73;;
823;SDS011;373;49.342;8.146;2024-03-23T11:27:46;3.38;;;1.60;;
823;SDS011;373;49.342;8.146;2024-03-23T11:30:17;4.13;;;1.85;;
823;SDS011;373;49.342;8.146;2024-03-23T11:32:50;5.10;;;1.55;;
823;SDS011;373;49.342;8.146;2024-03-23T11:35:25;5.32;;;2.13;;
823;SDS011;373;49.342;8.146;2024-03-23T11:38:06;3.70;;;1.50;;
823;SDS011;373;49.342;8.146;2024-03-23T11:40:36;2.28;;;1.45;;
823;SDS011;373;49.342;8.146;2024-03-23T11:43:05;2.67;;;1.30;;
823;SDS011;373;49.342;8.146;2024-03-23T11:45:35;4.65;;;2.05;;
823;SDS011;373;49.342;8.146;2024-03-23T11:48:10;3.83;;;1.67;;
823;SDS011;373;49.342;8.146;2024-03-23T11:50:44;4.15;;;1.60;;
823;SDS011;373;49.342;8.146;2024-03-23T11:53:18;3.67;;;1.48;;
823;SDS011;373;49.342;8.146;2024-03-23T11:55:46;4.40;;;1.65;;
823;SDS011;373;49.342;8.146;2024-03-23T11:58:17;2.75;;;1.55;;
823;SDS011;373;49.342;8.146;2024-03-23T12:00:49;3.25;;;1.40;;
823;SDS011;373;49.342;8.146;2024-03-23T12:03:18;2.92;;;0.90;;
823;SDS011;373;49.342;8.146;2024-03-23T12:05:47;1.40;;;0.73;;
823;SDS011;373;49.342;8.146;2024-03-23T12:08:18;3.33;;;1.13;;
823;SDS011;373;49.342;8.146;2024-03-23T12:10:49;1.40;;;0.50;;
823;SDS011;373;49.342;8.146;2024-03-23T12:13:20;1.40;;;0.63;;
823;SDS011;373;49.342;8.146;2024-03-23T12:15:54;1.60;;;0.60;;
823;SDS011;373;49.342;8.146;2024-03-23T12:18:23;2.35;;;1.23;;
823;SDS011;373;49.342;8.146;2024-03-23T12:20:50;2.15;;;0.85;;
823;SDS011;373;49.342;8.146;2024-03-23T12:23:18;2.65;;;1.20;;
823;SDS011;373;49.342;8.146;2024-03-23T12:25:48;0.95;;;0.80;;
823;SDS011;373;49.342;8.146;2024-03-23T12:28:15;3.35;;;1.48;;
823;SDS011;373;49.342;8.146;2024-03-23T12:30:44;3.78;;;1.30;;
823;SDS011;373;49.342;8.146;2024-03-23T12:33:11;4.43;;;1.30;;
823;SDS011;373;49.342;8.146;2024-03-23T12:35:37;3.45;;;1.42;;
823;SDS011;373;49.342;8.146;2024-03-23T12:38:05;1.17;;;0.68;;
823;SDS011;373;49.342;8.146;2024-03-23T12:40:32;2.97;;;0.88;;
823;SDS011;373;49.342;8.146;2024-03-23T12:43:00;1.27;;;0.50;;
823;SDS011;373;49.342;8.146;2024-03-23T12:45:26;1.05;;;0.40;;
823;SDS011;373;49.342;8.146;2024-03-23T12:47:55;1.40;;;0.60;;
823;SDS011;373;49.342;8.146;2024-03-23T12:50:21;0.28;;;0.28;;
823;SDS011;373;49.342;8.146;2024-03-23T12:52:49;1.85;;;0.38;;
823;SDS011;373;49.342;8.146;2024-03-23T12:55:15;1.02;;;0.50;;
823;SDS011;373;49.342;8.146;2024-03-23T12:57:44;1.60;;;0.70;;
823;SDS011;373;49.342;8.146;2024-03-23T13:00:11;0.80;;;0.50;;
823;SDS011;373;49.342;8.146;2024-03-23T13:02:41;1.50;;;0.65;;
823;SDS011;373;49.342;8.146;2024-03-23T13:05:07;0.80;;;0.52;;
823;SDS011;373;49.342;8.146;2024-03-23T13:07:35;1.02;;;0.52;;
823;SDS011;373;49.342;8.146;2024-03-23T13:10:03;2.67;;;0.40;;
823;SDS011;373;49.342;8.146;2024-03-23T13:12:30;2.28;;;0.60;;
823;SDS011;373;49.342;8.146;2024-03-23T13:14:59;2.47;;;0.60;;
823;SDS011;373;49.342;8.146;2024-03-23T13:17:30;2.78;;;0.55;;
823;SDS011;373;49.342;8.146;2024-03-23T13:19:57;1.00;;;0.55;;
823;SDS011;373;49.342;8.146;2024-03-23T13:22:39;1.85;;;0.60;;
823;SDS011;373;49.342;8.146;2024-03-23T13:25:07;3.38;;;0.82;;
823;SDS011;373;49.342;8.146;2024-03-23T13:30:07;1.67;;;0.50;;
823;SDS011;373;49.342;8.146;2024-03-23T13:32:35;3.22;;;0.77;;
823;SDS011;373;49.342;8.146;2024-03-23T13:35:03;2.17;;;0.85;;
823;SDS011;373;49.342;8.146;2024-03-23T13:37:32;1.65;;;0.57;;
823;SDS011;373;49.342;8.146;2024-03-23T13:39:59;1.65;;;0.65;;
823;SDS011;373;49.342;8.146;2024-03-23T13:42:27;4.13;;;0.70;;
823;SDS011;373;49.342;8.146;2024-03-23T13:44:54;3.25;;;0.75;;
823;SDS011;373;49.342;8.146;2024-03-23T13:47:24;1.75;;;0.70;;
823;SDS011;373;49.342;8.146;2024-03-23T13:49:51;1.73;;;0.70;;
823;SDS011;373;49.342;8.146;2024-03-23T13:52:18;0.95;;;0.50;;
823;SDS011;373;49.342;8.146;2024-03-23T13:54:48;0.85;;;0.47;;
823;SDS011;373;49.342;8.146;2024-03-23T13:57:15;0.43;;;0.43;;
823;SDS011;373;49.342;8.146;2024-03-23T13:59:42;1.20;;;0.55;;
823;SDS011;373;49.342;8.146;2024-03-23T14:02:09;0.50;;;0.40;;
823;SDS011;373;49.342;8.146;2024-03-23T14:04:39;1.27;;;0.77;;
823;SDS011;373;49.342;8.146;2024-03-23T14:07:06;3.50;;;0.40;;
823;SDS011;373;49.342;8.146;2024-03-23T14:09:33;2.60;;;0.95;;
823;SDS011;373;49.342;8.146;2024-03-23T14:12:00;2.42;;;0.60;;
823;SDS011;373;49.342;8.146;2024-03-23T14:14:26;1.38;;;0.70;;
823;SDS011;373;49.342;8.146;2024-03-23T14:16:54;2.67;;;0.60;;
823;SDS011;373;49.342;8.146;2024-03-23T14:19:20;1.95;;;0.93;;
823;SDS011;373;49.342;8.146;2024-03-23T14:21:49;2.25;;;0.50;;
823;SDS011;373;49.342;8.146;2024-03-23T14:24:15;1.38;;;0.60;;
823;SDS011;373;49.342;8.146;2024-03-23T14:26:42;1.77;;;1.00;;
823;SDS011;373;49.342;8.146;2024-03-23T14:29:11;2.00;;;1.05;;
823;SDS011;373;49.342;8.146;2024-03-23T14:31:38;1.35;;;0.50;;
823;SDS011;373;49.342;8.146;2024-03-23T14:34:06;0.80;;;0.70;;
823;SDS011;373;49.342;8.146;2024-03-23T14:36:34;3.25;;;0.70;;
823;SDS011;373;49.342;8.146;2024-03-23T14:39:01;1.35;;;0.70;;
823;SDS011;373;49.342;8.146;2024-03-23T14:41:29;2.42;;;1.00;;
823;SDS011;373;49.342;8.146;2024-03-23T14:43:55;2.13;;;0.73;;
823;SDS011;373;49.342;8.146;2024-03-23T14:46:23;1.73;;;0.80;;
823;SDS011;373;49.342;8.146;2024-03-23T14:48:49;2.13;;;0.73;;
823;SDS011;373;49.342;8.146;2024-03-23T14:51:16;2.78;;;0.77;;
823;SDS011;373;49.342;8.146;2024-03-23T14:53:45;1.50;;;0.63;;
823;SDS011;373;49.342;8.146;2024-03-23T14:56:17;2.08;;;0.82;;
823;SDS011;373;49.342;8.146;2024-03-23T14:58:46;1.77;;;0.80;;
823;SDS011;373;49.342;8.146;2024-03-23T15:01:19;1.45;;;0.65;;
823;SDS011;373;49.342;8.146;2024-03-23T15:03:49;2.40;;;0.73;;
823;SDS011;373;49.342;8.146;2024-03-23T15:06:18;3.13;;;1.00;;
823;SDS011;373;49.342;8.146;2024-03-23T15:08:45;1.55;;;0.50;;
823;SDS011;373;49.342;8.146;2024-03-23T15:11:14;1.77;;;0.95;;
823;SDS011;373;49.342;8.146;2024-03-23T15:13:52;3.45;;;0.80;;
823;SDS011;373;49.342;8.146;2024-03-23T15:16:20;0.98;;;0.82;;
823;SDS011;373;49.342;8.146;2024-03-23T15:18:47;1.38;;;0.80;;
823;SDS011;373;49.342;8.146;2024-03-23T15:21:16;0.57;;;0.57;;
823;SDS011;373;49.342;8.146;2024-03-23T15:23:46;0.75;;;0.40;;
823;SDS011;373;49.342;8.146;2024-03-23T15:26:13;0.60;;;0.25;;
823;SDS011;373;49.342;8.146;2024-03-23T15:28:42;1.40;;;0.35;;
823;SDS011;373;49.342;8.146;2024-03-23T15:31:33;0.57;;;0.35;;
823;SDS011;373;49.342;8.146;2024-03-23T15:34:00;1.10;;;0.38;;
823;SDS011;373;49.342;8.146;2024-03-23T15:36:27;1.83;;;0.40;;
823;SDS011;373;49.342;8.146;2024-03-23T15:38:53;0.73;;;0.32;;
823;SDS011;373;49.342;8.146;2024-03-23T15:41:21;1.17;;;0.15;;
823;SDS011;373;49.342;8.146;2024-03-23T15:43:50;0.52;;;0.22;;
823;SDS011;373;49.342;8.146;2024-03-23T15:46:18;0.40;;;0.40;;
823;SDS011;373;49.342;8.146;2024-03-23T15:48:44;0.45;;;0.17;;
823;SDS011;373;49.342;8.146;2024-03-23T15:51:14;0.68;;;0.30;;
823;SDS011;373;49.342;8.146;2024-03-23T15:53:40;1.42;;;0.50;;
823;SDS011;373;49.342;8.146;2024-03-23T15:56:07;1.95;;;0.40;;
823;SDS011;373;49.342;8.146;2024-03-23T15:58:34;1.02;;;0.40;;
823;SDS011;373;49.342;8.146;2024-03-23T16:01:03;1.70;;;0.30;;
823;SDS011;373;49.342;8.146;2024-03-23T16:03:30;0.68;;;0.40;;
823;SDS011;373;49.342;8.146;2024-03-23T16:05:59;0.50;;;0.35;;
823;SDS011;373;49.342;8.146;2024-03-23T16:08:26;0.25;;;0.20;;
823;SDS011;373;49.342;8.146;2024-03-23T16:10:53;0.15;;;0.10;;
823;SDS011;373;49.342;8.146;2024-03-23T16:13:20;0.90;;;0.50;;
823;SDS011;373;49.342;8.146;2024-03-23T16:15:54;1.75;;;0.30;;
823;SDS011;373;49.342;8.146;2024-03-23T16:18:22;0.30;;;0.30;;
823;SDS011;373;49.342;8.146;2024-03-23T16:20:53;2.70;;;0.80;;
823;SDS011;373;49.342;8.146;2024-03-23T16:23:20;0.30;;;0.30;;
823;SDS011;373;49.342;8.146;2024-03-23T16:25:48;0.38;;;0.38;;
823;SDS011;373;49.342;8.146;2024-03-23T16:28:21;1.95;;;0.60;;
823;SDS011;373;49.342;8.146;2024-03-23T16:30:56;0.95;;;0.85;;
823;SDS011;373;49.342;8.146;2024-03-23T16:33:24;1.05;;;0.80;;
823;SDS011;373;49.342;8.146;2024-03-23T16:35:56;1.65;;;0.38;;
823;SDS011;373;49.342;8.146;2024-03-23T16:38:23;1.27;;;0.40;;
823;SDS011;373;49.342;8.146;2024-03-23T16:40:54;0.40;;;0.22;;
823;SDS011;373;49.342;8.146;2024-03-23T16:43:21;1.25;;;0.52;;
823;SDS011;373;49.342;8.146;2024-03-23T16:45:59;0.95;;;0.55;;
823;SDS011;373;49.342;8.146;2024-03-23T16:48:28;1.80;;;0.43;;